Terminal Aerodrome Forecast
Issued by NWS

Home | Current Version | Previous Version | Graphics & Text | Print | Product List | Glossary On
Versions: 1 2 3 4 5 6 7 8 9 10 11 12 13 14 15
000
FTUS45 KGGW 240520
TAFGDV
TAF
KGDV 240520Z 2406/2506 15007KT P6SM FEW220 WS020/16035KT
     FM241200 VRB03KT P6SM FEW210
     FM241500 21008KT P6SM SKC
     FM241700 28009KT P6SM FEW170
     FM241800 31013KT P6SM FEW160
     FM250300 35009KT P6SM FEW170=

USA.gov is the U.S. government's official web portal to all federal, state and local government web resources and services.